sensor_id;sensor_type;location;lat;lon;timestamp;pressure;altitude;pressure_sealevel;temperature;humidity
5574;BME280;2563;52.242;7.956;2023-03-23T00:01:06;97194.47;;;10.45;100.00
5574;BME280;2563;52.242;7.956;2023-03-23T00:03:32;97183.41;;;10.45;100.00
5574;BME280;2563;52.242;7.956;2023-03-23T00:05:58;97168.06;;;10.43;100.00
5574;BME280;2563;52.242;7.956;2023-03-23T00:08:36;97158.59;;;10.43;100.00
5574;BME280;2563;52.242;7.956;2023-03-23T00:11:06;97110.47;;;10.46;100.00
5574;BME280;2563;52.242;7.956;2023-03-23T00:13:32;97118.97;;;10.46;100.00
5574;BME280;2563;52.242;7.956;2023-03-23T00:15:58;97119.81;;;10.47;100.00
5574;BME280;2563;52.242;7.956;2023-03-23T00:18:24;97123.31;;;10.46;100.00
5574;BME280;2563;52.242;7.956;2023-03-23T00:20:56;97138.75;;;10.46;100.00
5574;BME280;2563;52.242;7.956;2023-03-23T00:23:24;97162.56;;;10.48;100.00
5574;BME280;2563;52.242;7.956;2023-03-23T00:25:53;97193.31;;;10.49;100.00
5574;BME280;2563;52.242;7.956;2023-03-23T00:28:22;97226.75;;;10.49;100.00
5574;BME280;2563;52.242;7.956;2023-03-23T00:31:04;97267.19;;;10.47;100.00
5574;BME280;2563;52.242;7.956;2023-03-23T00:33:33;97334.72;;;10.49;100.00
5574;BME280;2563;52.242;7.956;2023-03-23T00:36:03;97380.19;;;10.49;100.00
5574;BME280;2563;52.242;7.956;2023-03-23T00:38:29;97437.56;;;10.49;100.00
5574;BME280;2563;52.242;7.956;2023-03-23T00:40:54;97469.47;;;10.47;100.00
5574;BME280;2563;52.242;7.956;2023-03-23T00:43:23;97502.75;;;10.48;100.00
5574;BME280;2563;52.242;7.956;2023-03-23T00:45:50;97527.66;;;10.48;100.00
5574;BME280;2563;52.242;7.956;2023-03-23T00:48:18;97553.38;;;10.48;100.00
5574;BME280;2563;52.242;7.956;2023-03-23T00:50:44;97566.22;;;10.48;100.00
5574;BME280;2563;52.242;7.956;2023-03-23T00:53:09;97584.22;;;10.48;100.00
5574;BME280;2563;52.242;7.956;2023-03-23T00:55:35;97581.75;;;10.46;100.00
5574;BME280;2563;52.242;7.956;2023-03-23T00:58:00;97590.31;;;10.47;100.00
5574;BME280;2563;52.242;7.956;2023-03-23T01:00:26;97611.59;;;10.49;100.00
5574;BME280;2563;52.242;7.956;2023-03-23T01:02:54;97608.09;;;10.50;100.00
5574;BME280;2563;52.242;7.956;2023-03-23T01:05:20;97609.03;;;10.49;100.00
5574;BME280;2563;52.242;7.956;2023-03-23T01:07:46;97611.69;;;10.47;100.00
5574;BME280;2563;52.242;7.956;2023-03-23T01:10:12;97613.66;;;10.43;100.00
5574;BME280;2563;52.242;7.956;2023-03-23T01:12:42;97623.84;;;10.45;100.00
5574;BME280;2563;52.242;7.956;2023-03-23T01:15:07;97622.31;;;10.42;100.00
5574;BME280;2563;52.242;7.956;2023-03-23T01:17:33;97617.38;;;10.39;100.00
5574;BME280;2563;52.242;7.956;2023-03-23T01:19:59;97625.09;;;10.39;100.00
5574;BME280;2563;52.242;7.956;2023-03-23T01:22:24;97644.72;;;10.40;100.00
5574;BME280;2563;52.242;7.956;2023-03-23T01:24:50;97643.69;;;10.43;100.00
5574;BME280;2563;52.242;7.956;2023-03-23T01:27:15;97633.53;;;10.41;100.00
5574;BME280;2563;52.242;7.956;2023-03-23T01:29:40;97637.50;;;10.46;100.00
5574;BME280;2563;52.242;7.956;2023-03-23T01:32:06;97620.66;;;10.41;100.00
5574;BME280;2563;52.242;7.956;2023-03-23T01:34:31;97612.25;;;10.39;100.00
5574;BME280;2563;52.242;7.956;2023-03-23T01:36:56;97599.59;;;10.36;100.00
5574;BME280;2563;52.242;7.956;2023-03-23T01:39:22;97613.38;;;10.35;100.00
5574;BME280;2563;52.242;7.956;2023-03-23T01:41:48;97609.88;;;10.36;100.00
5574;BME280;2563;52.242;7.956;2023-03-23T01:46:42;97608.63;;;10.42;100.00
5574;BME280;2563;52.242;7.956;2023-03-23T01:49:12;97593.06;;;10.43;100.00
5574;BME280;2563;52.242;7.956;2023-03-23T01:51:45;97591.44;;;10.42;100.00
5574;BME280;2563;52.242;7.956;2023-03-23T01:54:13;97550.31;;;10.42;100.00
5574;BME280;2563;52.242;7.956;2023-03-23T01:56:45;97533.94;;;10.43;100.00
5574;BME280;2563;52.242;7.956;2023-03-23T01:59:13;97520.19;;;10.45;100.00
5574;BME280;2563;52.242;7.956;2023-03-23T02:01:39;97507.31;;;10.45;100.00
5574;BME280;2563;52.242;7.956;2023-03-23T02:04:12;97500.31;;;10.47;100.00
5574;BME280;2563;52.242;7.956;2023-03-23T02:06:39;97486.75;;;10.45;100.00
5574;BME280;2563;52.242;7.956;2023-03-23T02:09:04;97483.47;;;10.42;100.00
5574;BME280;2563;52.242;7.956;2023-03-23T02:11:33;97487.66;;;10.43;100.00
5574;BME280;2563;52.242;7.956;2023-03-23T02:13:59;97467.44;;;10.39;100.00
5574;BME280;2563;52.242;7.956;2023-03-23T02:16:41;97456.13;;;10.41;100.00
5574;BME280;2563;52.242;7.956;2023-03-23T02:24:48;97418.03;;;10.47;100.00
5574;BME280;2563;52.242;7.956;2023-03-23T02:30:25;97403.19;;;10.50;100.00
5574;BME280;2563;52.242;7.956;2023-03-23T02:35:44;97368.97;;;10.50;100.00
5574;BME280;2563;52.242;7.956;2023-03-23T02:38:17;97357.16;;;10.47;100.00
5574;BME280;2563;52.242;7.956;2023-03-23T02:40:47;97345.22;;;10.46;100.00
5574;BME280;2563;52.242;7.956;2023-03-23T02:43:18;97313.56;;;10.46;100.00
5574;BME280;2563;52.242;7.956;2023-03-23T02:45:45;97312.50;;;10.48;100.00
5574;BME280;2563;52.242;7.956;2023-03-23T02:48:13;97302.81;;;10.52;100.00
5574;BME280;2563;52.242;7.956;2023-03-23T02:50:43;97294.06;;;10.54;100.00
5574;BME280;2563;52.242;7.956;2023-03-23T02:53:11;97281.53;;;10.50;100.00
5574;BME280;2563;52.242;7.956;2023-03-23T02:55:41;97271.25;;;10.50;100.00
5574;BME280;2563;52.242;7.956;2023-03-23T02:58:09;97255.72;;;10.51;100.00
5574;BME280;2563;52.242;7.956;2023-03-23T03:00:35;97256.03;;;10.58;100.00
5574;BME280;2563;52.242;7.956;2023-03-23T03:03:01;97247.53;;;10.57;100.00
5574;BME280;2563;52.242;7.956;2023-03-23T03:05:53;97221.69;;;10.59;100.00
5574;BME280;2563;52.242;7.956;2023-03-23T03:08:52;97201.34;;;10.56;100.00
5574;BME280;2563;52.242;7.956;2023-03-23T03:11:21;97185.69;;;10.59;100.00
5574;BME280;2563;52.242;7.956;2023-03-23T03:13:59;97172.47;;;10.63;100.00
5574;BME280;2563;52.242;7.956;2023-03-23T03:16:34;97124.44;;;10.64;100.00
5574;BME280;2563;52.242;7.956;2023-03-23T03:19:07;97127.25;;;10.61;100.00
5574;BME280;2563;52.242;7.956;2023-03-23T03:21:39;97147.31;;;10.67;100.00
5574;BME280;2563;52.242;7.956;2023-03-23T03:24:07;97118.59;;;10.62;100.00
5574;BME280;2563;52.242;7.956;2023-03-23T03:26:38;97125.13;;;10.66;100.00
5574;BME280;2563;52.242;7.956;2023-03-23T03:29:05;97109.44;;;10.69;100.00
5574;BME280;2563;52.242;7.956;2023-03-23T03:31:35;97110.84;;;10.73;100.00
5574;BME280;2563;52.242;7.956;2023-03-23T03:34:01;97112.47;;;10.74;100.00
5574;BME280;2563;52.242;7.956;2023-03-23T03:36:32;97100.06;;;10.79;100.00
5574;BME280;2563;52.242;7.956;2023-03-23T03:39:07;97097.03;;;10.74;100.00
5574;BME280;2563;52.242;7.956;2023-03-23T03:41:34;97098.81;;;10.74;100.00
5574;BME280;2563;52.242;7.956;2023-03-23T03:44:01;97100.56;;;10.73;100.00
5574;BME280;2563;52.242;7.956;2023-03-23T03:46:26;97099.34;;;10.77;100.00
5574;BME280;2563;52.242;7.956;2023-03-23T03:48:55;97088.41;;;10.75;100.00
5574;BME280;2563;52.242;7.956;2023-03-23T03:51:22;97091.78;;;10.76;100.00
5574;BME280;2563;52.242;7.956;2023-03-23T03:53:47;97095.97;;;10.77;100.00
5574;BME280;2563;52.242;7.956;2023-03-23T03:56:12;97100.31;;;10.76;100.00
5574;BME280;2563;52.242;7.956;2023-03-23T03:58:39;97121.47;;;10.80;100.00
5574;BME280;2563;52.242;7.956;2023-03-23T04:01:04;97116.44;;;10.78;100.00
5574;BME280;2563;52.242;7.956;2023-03-23T04:03:29;97124.16;;;10.78;100.00
5574;BME280;2563;52.242;7.956;2023-03-23T04:05:55;97186.59;;;10.80;100.00
5574;BME280;2563;52.242;7.956;2023-03-23T04:08:22;97189.38;;;10.77;100.00
5574;BME280;2563;52.242;7.956;2023-03-23T04:10:48;97208.34;;;10.76;100.00
5574;BME280;2563;52.242;7.956;2023-03-23T04:13:14;97212.41;;;10.79;100.00
5574;BME280;2563;52.242;7.956;2023-03-23T04:15:39;97224.34;;;10.80;100.00
5574;BME280;2563;52.242;7.956;2023-03-23T04:18:05;97223.50;;;10.79;100.00
5574;BME280;2563;52.242;7.956;2023-03-23T04:20:31;97237.06;;;10.81;100.00
5574;BME280;2563;52.242;7.956;2023-03-23T04:22:56;97229.59;;;10.78;100.00
5574;BME280;2563;52.242;7.956;2023-03-23T04:25:22;97244.53;;;10.84;100.00
5574;BME280;2563;52.242;7.956;2023-03-23T04:27:49;97246.41;;;10.94;100.00
5574;BME280;2563;52.242;7.956;2023-03-23T04:30:21;97247.97;;;10.85;100.00
5574;BME280;2563;52.242;7.956;2023-03-23T04:32:48;97249.94;;;10.81;100.00
5574;BME280;2563;52.242;7.956;2023-03-23T04:35:21;97260.69;;;10.86;100.00
5574;BME280;2563;52.242;7.956;2023-03-23T04:37:47;97267.13;;;10.81;100.00
5574;BME280;2563;52.242;7.956;2023-03-23T04:40:14;97260.94;;;10.83;100.00
5574;BME280;2563;52.242;7.956;2023-03-23T04:42:42;97267.84;;;10.83;100.00
5574;BME280;2563;52.242;7.956;2023-03-23T04:45:13;97278.56;;;10.88;100.00
5574;BME280;2563;52.242;7.956;2023-03-23T04:47:40;97276.22;;;10.96;100.00
5574;BME280;2563;52.242;7.956;2023-03-23T04:50:12;97280.06;;;11.02;100.00
5574;BME280;2563;52.242;7.956;2023-03-23T04:52:38;97282.88;;;10.99;100.00
5574;BME280;2563;52.242;7.956;2023-03-23T04:55:08;97276.56;;;11.03;100.00
5574;BME280;2563;52.242;7.956;2023-03-23T04:57:35;97292.13;;;11.01;100.00
5574;BME280;2563;52.242;7.956;2023-03-23T05:00:04;97292.44;;;11.08;100.00
5574;BME280;2563;52.242;7.956;2023-03-23T05:02:38;97292.44;;;11.08;100.00
5574;BME280;2563;52.242;7.956;2023-03-23T05:05:05;97292.22;;;11.11;100.00
5574;BME280;2563;52.242;7.956;2023-03-23T05:07:31;97291.63;;;11.07;100.00
5574;BME280;2563;52.242;7.956;2023-03-23T05:09:56;97309.91;;;11.04;100.00
5574;BME280;2563;52.242;7.956;2023-03-23T05:12:22;97318.78;;;11.00;100.00
5574;BME280;2563;52.242;7.956;2023-03-23T05:14:47;97310.97;;;11.02;100.00
5574;BME280;2563;52.242;7.956;2023-03-23T05:17:14;97326.41;;;11.02;100.00
5574;BME280;2563;52.242;7.956;2023-03-23T05:19:44;97319.84;;;10.98;100.00
5574;BME280;2563;52.242;7.956;2023-03-23T05:22:13;97335.03;;;11.01;100.00
5574;BME280;2563;52.242;7.956;2023-03-23T05:24:39;97338.31;;;11.03;100.00
5574;BME280;2563;52.242;7.956;2023-03-23T05:27:05;97341.34;;;11.08;100.00
5574;BME280;2563;52.242;7.956;2023-03-23T05:29:33;97345.91;;;11.04;100.00
5574;BME280;2563;52.242;7.956;2023-03-23T05:32:01;97354.69;;;11.02;100.00
5574;BME280;2563;52.242;7.956;2023-03-23T05:34:27;97370.00;;;11.03;100.00
5574;BME280;2563;52.242;7.956;2023-03-23T05:36:54;97386.03;;;11.07;100.00
5574;BME280;2563;52.242;7.956;2023-03-23T05:39:21;97387.66;;;11.08;100.00
5574;BME280;2563;52.242;7.956;2023-03-23T05:41:47;97386.03;;;11.07;100.00
5574;BME280;2563;52.242;7.956;2023-03-23T05:44:12;97380.91;;;11.07;100.00
5574;BME280;2563;52.242;7.956;2023-03-23T05:46:39;97386.75;;;11.09;100.00
5574;BME280;2563;52.242;7.956;2023-03-23T05:49:05;97394.47;;;11.09;100.00
5574;BME280;2563;52.242;7.956;2023-03-23T05:51:30;97394.47;;;11.09;100.00
5574;BME280;2563;52.242;7.956;2023-03-23T05:53:55;97397.75;;;11.11;100.00
5574;BME280;2563;52.242;7.956;2023-03-23T05:56:21;97396.56;;;11.15;100.00
5574;BME280;2563;52.242;7.956;2023-03-23T05:58:47;97394.22;;;11.12;100.00
5574;BME280;2563;52.242;7.956;2023-03-23T06:01:12;97403.31;;;11.27;100.00
5574;BME280;2563;52.242;7.956;2023-03-23T06:03:39;97402.28;;;11.19;100.00
5574;BME280;2563;52.242;7.956;2023-03-23T06:06:04;97426.63;;;11.15;100.00
5574;BME280;2563;52.242;7.956;2023-03-23T06:08:30;97445.25;;;11.18;100.00
5574;BME280;2563;52.242;7.956;2023-03-23T06:10:56;97437.84;;;11.25;100.00
5574;BME280;2563;52.242;7.956;2023-03-23T06:13:22;97458.31;;;11.26;100.00
5574;BME280;2563;52.242;7.956;2023-03-23T06:15:48;97470.03;;;11.31;100.00
5574;BME280;2563;52.242;7.956;2023-03-23T06:18:14;97457.13;;;11.42;100.00
5574;BME280;2563;52.242;7.956;2023-03-23T06:20:39;97460.91;;;11.38;100.00
5574;BME280;2563;52.242;7.956;2023-03-23T06:23:06;97469.34;;;11.40;100.00
5574;BME280;2563;52.242;7.956;2023-03-23T06:25:32;97478.44;;;11.44;100.00
5574;BME280;2563;52.242;7.956;2023-03-23T06:27:57;97494.34;;;11.49;100.00
5574;BME280;2563;52.242;7.956;2023-03-23T06:30:24;97509.34;;;11.55;100.00
5574;BME280;2563;52.242;7.956;2023-03-23T06:32:50;97531.56;;;11.56;100.00
5574;BME280;2563;52.242;7.956;2023-03-23T06:35:16;97529.94;;;11.55;100.00
5574;BME280;2563;52.242;7.956;2023-03-23T06:37:41;97536.50;;;11.59;100.00
5574;BME280;2563;52.242;7.956;2023-03-23T06:40:07;97548.69;;;11.57;100.00
5574;BME280;2563;52.242;7.956;2023-03-23T06:42:33;97561.56;;;11.57;100.00
5574;BME280;2563;52.242;7.956;2023-03-23T06:44:59;97572.09;;;11.65;100.00
5574;BME280;2563;52.242;7.956;2023-03-23T06:47:26;97575.13;;;11.70;100.00
5574;BME280;2563;52.242;7.956;2023-03-23T06:49:52;97569.50;;;11.77;100.00
5574;BME280;2563;52.242;7.956;2023-03-23T06:52:17;97581.72;;;11.97;100.00
5574;BME280;2563;52.242;7.956;2023-03-23T06:54:43;97584.25;;;12.20;100.00
5574;BME280;2563;52.242;7.956;2023-03-23T06:57:09;97573.44;;;12.69;100.00
5574;BME280;2563;52.242;7.956;2023-03-23T06:59:34;97569.41;;;12.97;100.00
5574;BME280;2563;52.242;7.956;2023-03-23T07:02:00;97610.38;;;13.12;100.00
5574;BME280;2563;52.242;7.956;2023-03-23T07:04:25;97623.94;;;13.25;100.00
5574;BME280;2563;52.242;7.956;2023-03-23T07:06:51;97639.63;;;13.75;100.00
5574;BME280;2563;52.242;7.956;2023-03-23T07:09:17;97661.03;;;13.87;100.00
5574;BME280;2563;52.242;7.956;2023-03-23T07:11:42;97739.53;;;13.44;100.00
5574;BME280;2563;52.242;7.956;2023-03-23T07:14:08;97785.22;;;13.44;100.00
5574;BME280;2563;52.242;7.956;2023-03-23T07:16:34;97833.16;;;13.25;100.00
5574;BME280;2563;52.242;7.956;2023-03-23T07:18:59;97862.06;;;13.08;100.00
5574;BME280;2563;52.242;7.956;2023-03-23T07:21:25;97902.78;;;13.04;100.00
5574;BME280;2563;52.242;7.956;2023-03-23T07:23:51;97924.50;;;13.02;100.00
5574;BME280;2563;52.242;7.956;2023-03-23T07:26:16;97959.00;;;12.89;100.00
5574;BME280;2563;52.242;7.956;2023-03-23T07:28:42;97982.09;;;12.80;100.00
5574;BME280;2563;52.242;7.956;2023-03-23T07:31:07;98002.50;;;12.83;100.00
5574;BME280;2563;52.242;7.956;2023-03-23T07:33:34;98001.81;;;12.92;100.00
5574;BME280;2563;52.242;7.956;2023-03-23T07:36:01;98020.75;;;13.04;100.00
5574;BME280;2563;52.242;7.956;2023-03-23T07:38:27;98018.19;;;13.15;100.00
5574;BME280;2563;52.242;7.956;2023-03-23T07:40:53;98061.25;;;13.03;100.00
5574;BME280;2563;52.242;7.956;2023-03-23T07:43:19;98065.13;;;13.09;100.00
5574;BME280;2563;52.242;7.956;2023-03-23T07:45:45;98092.38;;;13.13;100.00
5574;BME280;2563;52.242;7.956;2023-03-23T07:48:11;98097.78;;;13.21;100.00
5574;BME280;2563;52.242;7.956;2023-03-23T07:50:37;98103.53;;;13.25;100.00
5574;BME280;2563;52.242;7.956;2023-03-23T07:53:03;98117.81;;;13.06;100.00
5574;BME280;2563;52.242;7.956;2023-03-23T07:55:29;98145.13;;;12.97;100.00
5574;BME280;2563;52.242;7.956;2023-03-23T07:57:54;98155.91;;;12.91;100.00
5574;BME280;2563;52.242;7.956;2023-03-23T08:00:21;98182.16;;;12.85;100.00
5574;BME280;2563;52.242;7.956;2023-03-23T08:02:53;98181.88;;;12.77;100.00
5574;BME280;2563;52.242;7.956;2023-03-23T08:05:20;98195.22;;;12.71;100.00
5574;BME280;2563;52.242;7.956;2023-03-23T08:07:47;98195.66;;;12.65;100.00
5574;BME280;2563;52.242;7.956;2023-03-23T08:10:14;98192.75;;;12.69;100.00
5574;BME280;2563;52.242;7.956;2023-03-23T08:12:41;98194.63;;;12.67;100.00
5574;BME280;2563;52.242;7.956;2023-03-23T08:15:09;98193.81;;;12.67;100.00
5574;BME280;2563;52.242;7.956;2023-03-23T08:17:37;98183.47;;;12.67;100.00
5574;BME280;2563;52.242;7.956;2023-03-23T08:20:03;98186.16;;;12.65;100.00
5574;BME280;2563;52.242;7.956;2023-03-23T08:22:39;98191.09;;;12.68;100.00
5574;BME280;2563;52.242;7.956;2023-03-23T08:25:06;98191.22;;;12.67;100.00
5574;BME280;2563;52.242;7.956;2023-03-23T08:27:33;98193.81;;;12.67;100.00
5574;BME280;2563;52.242;7.956;2023-03-23T08:29:58;98187.44;;;12.60;100.00
5574;BME280;2563;52.242;7.956;2023-03-23T08:32:25;98188.97;;;12.62;100.00
5574;BME280;2563;52.242;7.956;2023-03-23T08:34:50;98185.13;;;12.68;100.00
5574;BME280;2563;52.242;7.956;2023-03-23T08:37:16;98185.53;;;12.62;100.00
5574;BME280;2563;52.242;7.956;2023-03-23T08:39:41;98198.13;;;12.66;100.00
5574;BME280;2563;52.242;7.956;2023-03-23T08:42:08;98190.22;;;12.81;100.00
5574;BME280;2563;52.242;7.956;2023-03-23T08:44:35;98178.34;;;13.02;100.00
5574;BME280;2563;52.242;7.956;2023-03-23T08:47:00;98124.47;;;13.33;100.00
5574;BME280;2563;52.242;7.956;2023-03-23T08:49:27;98160.78;;;13.43;100.00
5574;BME280;2563;52.242;7.956;2023-03-23T08:51:53;98176.28;;;13.43;100.00
5574;BME280;2563;52.242;7.956;2023-03-23T08:54:18;98208.25;;;13.42;100.00
5574;BME280;2563;52.242;7.956;2023-03-23T08:56:44;98219.50;;;13.40;100.00
5574;BME280;2563;52.242;7.956;2023-03-23T08:59:09;98252.53;;;13.24;100.00
5574;BME280;2563;52.242;7.956;2023-03-23T09:01:35;98267.16;;;13.12;100.00
5574;BME280;2563;52.242;7.956;2023-03-23T09:04:01;98305.94;;;12.99;100.00
5574;BME280;2563;52.242;7.956;2023-03-23T09:06:26;98303.16;;;12.90;100.00
5574;BME280;2563;52.242;7.956;2023-03-23T09:08:53;98292.44;;;12.83;100.00
5574;BME280;2563;52.242;7.956;2023-03-23T09:11:20;98275.22;;;12.71;100.00
5574;BME280;2563;52.242;7.956;2023-03-23T09:13:45;98277.53;;;12.63;100.00
5574;BME280;2563;52.242;7.956;2023-03-23T09:16:11;98243.97;;;12.63;100.00
5574;BME280;2563;52.242;7.956;2023-03-23T09:18:36;98221.50;;;12.52;100.00
5574;BME280;2563;52.242;7.956;2023-03-23T09:21:03;98226.44;;;12.55;100.00
5574;BME280;2563;52.242;7.956;2023-03-23T09:23:29;98196.22;;;12.57;100.00
5574;BME280;2563;52.242;7.956;2023-03-23T09:25:55;98161.63;;;12.60;100.00
5574;BME280;2563;52.242;7.956;2023-03-23T09:28:20;98162.66;;;12.57;100.00
5574;BME280;2563;52.242;7.956;2023-03-23T09:30:46;98162.53;;;12.59;100.00
5574;BME280;2563;52.242;7.956;2023-03-23T09:33:13;98158.91;;;12.61;100.00
5574;BME280;2563;52.242;7.956;2023-03-23T09:35:38;98168.66;;;12.58;100.00
5574;BME280;2563;52.242;7.956;2023-03-23T09:38:07;98185.09;;;12.44;100.00
5574;BME280;2563;52.242;7.956;2023-03-23T09:41:42;98189.56;;;12.29;100.00
5574;BME280;2563;52.242;7.956;2023-03-23T09:49:10;98126.41;;;11.59;100.00
5574;BME280;2563;52.242;7.956;2023-03-23T09:52:04;98098.28;;;11.31;100.00
5574;BME280;2563;52.242;7.956;2023-03-23T09:57:02;98039.75;;;11.20;100.00
5574;BME280;2563;52.242;7.956;2023-03-23T09:59:41;97992.38;;;11.22;100.00
5574;BME280;2563;52.242;7.956;2023-03-23T10:02:16;97953.66;;;11.24;100.00
5574;BME280;2563;52.242;7.956;2023-03-23T10:04:48;97923.81;;;11.21;100.00
5574;BME280;2563;52.242;7.956;2023-03-23T10:07:32;97903.44;;;11.18;100.00
5574;BME280;2563;52.242;7.956;2023-03-23T10:10:00;97875.81;;;11.20;100.00
5574;BME280;2563;52.242;7.956;2023-03-23T10:15:14;97822.56;;;10.97;100.00
5574;BME280;2563;52.242;7.956;2023-03-23T10:20:55;97794.53;;;10.68;100.00
5574;BME280;2563;52.242;7.956;2023-03-23T10:28:39;97751.72;;;10.80;100.00
5574;BME280;2563;52.242;7.956;2023-03-23T10:31:11;97736.38;;;10.78;100.00
5574;BME280;2563;52.242;7.956;2023-03-23T10:33:43;97736.94;;;10.95;100.00
5574;BME280;2563;52.242;7.956;2023-03-23T10:39:12;97718.53;;;11.12;100.00
5574;BME280;2563;52.242;7.956;2023-03-23T10:41:39;97699.69;;;11.47;100.00
5574;BME280;2563;52.242;7.956;2023-03-23T10:44:16;97679.91;;;11.59;100.00
5574;BME280;2563;52.242;7.956;2023-03-23T10:46:46;97661.03;;;11.36;100.00
5574;BME280;2563;52.242;7.956;2023-03-23T10:49:19;97673.63;;;11.16;100.00
5574;BME280;2563;52.242;7.956;2023-03-23T10:51:54;97705.56;;;11.14;100.00
5574;BME280;2563;52.242;7.956;2023-03-23T10:54:35;97707.66;;;11.20;100.00
5574;BME280;2563;52.242;7.956;2023-03-23T10:57:12;97705.13;;;11.31;100.00
5574;BME280;2563;52.242;7.956;2023-03-23T10:59:40;97717.69;;;11.36;100.00
5574;BME280;2563;52.242;7.956;2023-03-23T11:02:14;97701.09;;;11.40;100.00
5574;BME280;2563;52.242;7.956;2023-03-23T11:04:45;97703.38;;;11.32;100.00
5574;BME280;2563;52.242;7.956;2023-03-23T11:07:25;97710.84;;;11.23;100.00
5574;BME280;2563;52.242;7.956;2023-03-23T11:09:54;97716.44;;;11.17;100.00
5574;BME280;2563;52.242;7.956;2023-03-23T11:12:21;97716.09;;;11.22;100.00
5574;BME280;2563;52.242;7.956;2023-03-23T11:14:49;97726.47;;;11.09;100.00
5574;BME280;2563;52.242;7.956;2023-03-23T11:17:26;97727.34;;;11.21;100.00
5574;BME280;2563;52.242;7.956;2023-03-23T11:19:52;97729.94;;;11.32;100.00
5574;BME280;2563;52.242;7.956;2023-03-23T11:22:27;97703.91;;;11.48;100.00
5574;BME280;2563;52.242;7.956;2023-03-23T11:24:55;97706.28;;;11.62;100.00
5574;BME280;2563;52.242;7.956;2023-03-23T11:27:24;97708.50;;;11.67;100.00
5574;BME280;2563;52.242;7.956;2023-03-23T11:32:26;97691.59;;;11.87;100.00
5574;BME280;2563;52.242;7.956;2023-03-23T11:34:56;97724.47;;;11.83;100.00
5574;BME280;2563;52.242;7.956;2023-03-23T11:37:35;97736.09;;;11.54;100.00
5574;BME280;2563;52.242;7.956;2023-03-23T11:50:53;97810.09;;;11.27;100.00
5574;BME280;2563;52.242;7.956;2023-03-23T11:53:22;97842.66;;;11.28;100.00
5574;BME280;2563;52.242;7.956;2023-03-23T11:55:55;97875.06;;;11.31;100.00
5574;BME280;2563;52.242;7.956;2023-03-23T11:58:23;97847.00;;;11.63;100.00
5574;BME280;2563;52.242;7.956;2023-03-23T12:00:57;97839.09;;;12.48;100.00
5574;BME280;2563;52.242;7.956;2023-03-23T12:06:09;97867.31;;;13.40;100.00
5574;BME280;2563;52.242;7.956;2023-03-23T12:30:17;98372.19;;;13.61;100.00
5574;BME280;2563;52.242;7.956;2023-03-23T12:32:42;98414.72;;;13.45;100.00
5574;BME280;2563;52.242;7.956;2023-03-23T12:38:15;98527.25;;;13.74;100.00
5574;BME280;2563;52.242;7.956;2023-03-23T12:41:16;98562.16;;;13.93;100.00
5574;BME280;2563;52.242;7.956;2023-03-23T12:43:58;98586.84;;;14.10;100.00
5574;BME280;2563;52.242;7.956;2023-03-23T12:46:52;98622.28;;;14.33;100.00
5574;BME280;2563;52.242;7.956;2023-03-23T13:02:30;98785.41;;;14.57;100.00
5574;BME280;2563;52.242;7.956;2023-03-23T13:07:34;98856.22;;;14.31;100.00
5574;BME280;2563;52.242;7.956;2023-03-23T13:12:40;98906.97;;;14.33;100.00
5574;BME280;2563;52.242;7.956;2023-03-23T13:15:31;98884.84;;;14.67;100.00
5574;BME280;2563;52.242;7.956;2023-03-23T13:18:07;98851.50;;;15.13;100.00
5574;BME280;2563;52.242;7.956;2023-03-23T13:25:53;98891.16;;;15.63;100.00
5574;BME280;2563;52.242;7.956;2023-03-23T13:28:27;98933.22;;;15.55;100.00
5574;BME280;2563;52.242;7.956;2023-03-23T13:33:30;98975.16;;;15.10;100.00
5574;BME280;2563;52.242;7.956;2023-03-23T13:35:57;99031.75;;;14.78;100.00
5574;BME280;2563;52.242;7.956;2023-03-23T13:38:30;98995.78;;;15.87;100.00
5574;BME280;2563;52.242;7.956;2023-03-23T13:40:56;98981.81;;;16.25;100.00
5574;BME280;2563;52.242;7.956;2023-03-23T13:43:31;98983.53;;;16.37;100.00
5574;BME280;2563;52.242;7.956;2023-03-23T13:46:28;99036.19;;;15.79;100.00
5574;BME280;2563;52.242;7.956;2023-03-23T13:49:05;99042.25;;;16.03;100.00
5574;BME280;2563;52.242;7.956;2023-03-23T13:57:00;99050.66;;;16.55;100.00
5574;BME280;2563;52.242;7.956;2023-03-23T13:59:46;99118.06;;;15.70;100.00
5574;BME280;2563;52.242;7.956;2023-03-23T14:04:56;99138.25;;;15.39;100.00
5574;BME280;2563;52.242;7.956;2023-03-23T14:07:22;99117.00;;;15.21;100.00
5574;BME280;2563;52.242;7.956;2023-03-23T14:09:49;99109.44;;;15.82;100.00
5574;BME280;2563;52.242;7.956;2023-03-23T14:12:26;99080.72;;;15.34;100.00
5574;BME280;2563;52.242;7.956;2023-03-23T14:14:59;99116.31;;;15.45;100.00
5574;BME280;2563;52.242;7.956;2023-03-23T14:17:31;99113.47;;;15.22;100.00
5574;BME280;2563;52.242;7.956;2023-03-23T14:19:59;99097.00;;;15.74;100.00
5574;BME280;2563;52.242;7.956;2023-03-23T14:22:28;99137.34;;;15.40;100.00
5574;BME280;2563;52.242;7.956;2023-03-23T14:27:27;99103.53;;;15.55;100.00
5574;BME280;2563;52.242;7.956;2023-03-23T14:30:00;99162.44;;;15.52;100.00
5574;BME280;2563;52.242;7.956;2023-03-23T14:32:27;99147.00;;;15.89;100.00
5574;BME280;2563;52.242;7.956;2023-03-23T14:34:54;99140.50;;;15.71;100.00
5574;BME280;2563;52.242;7.956;2023-03-23T14:37:21;99145.81;;;15.29;100.00
5574;BME280;2563;52.242;7.956;2023-03-23T14:39:52;99193.25;;;15.04;100.00
5574;BME280;2563;52.242;7.956;2023-03-23T14:42:29;99190.81;;;14.61;100.00
5574;BME280;2563;52.242;7.956;2023-03-23T14:44:55;99195.28;;;14.31;100.00
5574;BME280;2563;52.242;7.956;2023-03-23T14:47:24;99198.41;;;14.21;100.00
5574;BME280;2563;52.242;7.956;2023-03-23T14:49:59;99170.41;;;14.28;100.00
5574;BME280;2563;52.242;7.956;2023-03-23T14:52:32;99138.50;;;14.42;100.00
5574;BME280;2563;52.242;7.956;2023-03-23T14:55:12;99084.47;;;14.50;100.00
5574;BME280;2563;52.242;7.956;2023-03-23T14:57:41;99092.16;;;14.10;100.00
5574;BME280;2563;52.242;7.956;2023-03-23T15:00:16;99108.06;;;14.04;100.00
5574;BME280;2563;52.242;7.956;2023-03-23T15:02:45;99102.88;;;14.04;100.00
5574;BME280;2563;52.242;7.956;2023-03-23T15:05:16;99089.69;;;14.09;100.00
5574;BME280;2563;52.242;7.956;2023-03-23T15:07:47;99071.59;;;13.94;100.00
5574;BME280;2563;52.242;7.956;2023-03-23T15:10:16;99052.84;;;13.76;100.00
5574;BME280;2563;52.242;7.956;2023-03-23T15:12:47;99068.28;;;13.78;100.00